Startpagina
METAR-TAF:

METAR-TAF

Vliegvelden :

Luchthaven Genève

Genève, Zwitserland

breedte: 46-15N, lengte: 006-08E, hoogte: 420 m

Actueel weer

Dit bericht is 42 minuten geleden gemaakt, om 06:20 UTC
Wind 2 kt uit het zuidzuidwesten
Temperatuur 10°C
Vochtigheid 76%
Druk 1024 hPa
Zicht 10 km of meer
geen wolken onder 1500 m en geen cumulonimbus

METAR: LSGG 220620Z 21002KT CAVOK 10/06 Q1024 NOSIG

Tijdstip: 09:02 (07:02 UTC)

Verwachting

Dit bericht is 1 uur en het 37 minuten geleden gemaakt, om 05:25 UTC
Verwachting geldig van 22 om 06 UTC tot 23 om 12 UTC
Wind 3 kt uit variabele richting
Zicht 10 km of meer
geen wolken onder 1500 m en geen cumulonimbus
Wijzigt naar
van 22 om 21 UTC tot 22 om 23 UTC
Wind 7 kt uit het zuidwesten
Zicht 10 km of meer
Weinig wolken op 9000 ft
Verspreide wolken op 13000 ft

TAF: LSGG 220525Z 2206/2312 VRB03KT CAVOK TX22/2215Z TN09/2206Z TN11/2305Z BECMG 2221/2223 22007KT 9999 FEW090 SCT130

Waarnemingen en weersverwachtingen van meer dan 4000 vliegvelden (METAR en TAF).

De beschikbare stations zijn de gele en rode punten op de kaart.

Ga met uw muis naar het station om de naam te zien.

Klik dan om waarnemingen en weersverwachtingen te zien.

kaart wijzigen: klik op de groene knoppen met een zwart kruis om in te zoomen, op de groene knop met een streepje om uit te zoomen of op de groene pijlen voor aangrenzende kaarten.


METAR-TAF: